You are not logged in, Click here to log in
ICAO: ENBR Country: 挪威卑爾根西南方6.5海里(12公里、7.5英里)
Latitude: 60.2934 Longitude: 5.21814
Total Arrivals: 7 Total Departures: 5
Latest Arrival: KL118701 (ENSH-ENBR)Stone. Chang Latest Departure: SK28730 (ENBR-ENSH)Stone. Chang
Scenery: http://forums.x-plane.org/index.php?/files/file/23963-enbr-bergen-fleslan-intl-norway/
METAR : ENBR 210720Z VRB02KT 9999 FEW035 BKN048 12/10 Q1022 NOSIG RMK WIND 1200FT 16004KT

卑爾根機場BGO